createdAt,value
2023-02-07T00:00:42.834Z,-1.20
2023-02-07T00:01:42.835Z,-1.20
2023-02-07T00:02:42.792Z,-1.20
2023-02-07T00:03:42.794Z,-1.20
2023-02-07T00:04:42.771Z,-1.20
2023-02-07T00:05:42.775Z,-1.20
2023-02-07T00:06:42.745Z,-1.19
2023-02-07T00:07:42.755Z,-1.20
2023-02-07T00:08:42.714Z,-1.17
2023-02-07T00:09:42.699Z,-1.17
2023-02-07T00:10:42.710Z,-1.19
2023-02-07T00:11:42.670Z,-1.19
2023-02-07T00:12:42.670Z,-1.17
2023-02-07T00:13:42.647Z,-1.15
2023-02-07T00:14:42.635Z,-1.19
2023-02-07T00:15:42.650Z,-1.17
2023-02-07T00:16:42.704Z,-1.17
2023-02-07T00:17:42.597Z,-1.17
2023-02-07T00:18:42.602Z,-1.15
2023-02-07T00:19:42.587Z,-1.19
2023-02-07T00:20:42.575Z,-1.17
2023-02-07T00:21:42.545Z,-1.19
2023-02-07T00:22:42.524Z,-1.17
2023-02-07T00:23:42.533Z,-1.17
2023-02-07T00:24:42.505Z,-1.19
2023-02-07T00:25:42.515Z,-1.19
2023-02-07T00:26:42.475Z,-1.17
2023-02-07T00:27:42.503Z,-1.17
2023-02-07T00:28:42.518Z,-1.17
2023-02-07T00:29:42.445Z,-1.15
2023-02-07T00:30:42.486Z,-1.14
2023-02-07T00:31:42.475Z,-1.15
2023-02-07T00:32:42.418Z,-1.15
2023-02-07T00:33:42.415Z,-1.14
2023-02-07T00:34:42.383Z,-1.15
2023-02-07T00:35:42.385Z,-1.14
2023-02-07T00:36:42.353Z,-1.12
2023-02-07T00:37:42.353Z,-1.12
2023-02-07T00:42:22.624Z,-1.11
2023-02-07T00:43:28.140Z,-1.14
2023-02-07T00:44:15.777Z,-1.11
2023-02-07T00:45:14.765Z,-1.14
2023-02-07T00:46:14.854Z,-1.12
2023-02-07T00:47:14.753Z,-1.12
2023-02-07T00:48:14.749Z,-1.11
2023-02-07T00:49:14.718Z,-1.12
2023-02-07T00:50:14.715Z,-1.11
2023-02-07T00:51:14.724Z,-1.12
2023-02-07T00:52:14.696Z,-1.11
2023-02-07T00:53:14.677Z,-1.11
2023-02-07T00:54:14.676Z,-1.12
2023-02-07T00:55:14.651Z,-1.11
2023-02-07T00:56:14.651Z,-1.11
2023-02-07T00:57:14.629Z,-1.11
2023-02-07T00:58:14.624Z,-1.12
2023-02-07T00:59:14.595Z,-1.12
2023-02-07T01:00:14.598Z,-1.12
2023-02-07T01:01:14.652Z,-1.11
2023-02-07T01:02:14.572Z,-1.11
2023-02-07T01:03:14.552Z,-1.12
2023-02-07T01:04:14.548Z,-1.14
2023-02-07T01:05:14.546Z,-1.12
2023-02-07T01:06:14.522Z,-1.12
2023-02-07T01:07:14.509Z,-1.12
2023-02-07T01:08:14.492Z,-1.15
2023-02-07T01:09:14.528Z,-1.15
2023-02-07T01:10:14.463Z,-1.15
2023-02-07T01:11:14.484Z,-1.14
2023-02-07T01:12:14.460Z,-1.17
2023-02-07T01:13:14.431Z,-1.17
2023-02-07T01:14:14.424Z,-1.19
2023-02-07T01:15:14.405Z,-1.19
2023-02-07T01:16:14.443Z,-1.22
2023-02-07T01:17:14.377Z,-1.22
2023-02-07T01:18:14.384Z,-1.23
2023-02-07T01:19:14.352Z,-1.23
2023-02-07T01:20:14.360Z,-1.25
2023-02-07T01:21:14.343Z,-1.26
2023-02-07T01:22:14.316Z,-1.29
2023-02-07T01:23:14.313Z,-1.32
2023-02-07T01:24:14.302Z,-1.30
2023-02-07T01:25:14.288Z,-1.30
2023-02-07T01:26:14.335Z,-1.35
2023-02-07T01:27:14.282Z,-1.37
2023-02-07T01:28:14.303Z,-1.40
2023-02-07T01:29:14.309Z,-1.40
2023-02-07T01:30:14.229Z,-1.40
2023-02-07T01:31:14.372Z,-1.44
2023-02-07T01:32:14.223Z,-1.46
2023-02-07T01:33:14.189Z,-1.44
2023-02-07T01:34:14.188Z,-1.48
2023-02-07T01:35:14.170Z,-1.47
2023-02-07T01:36:14.160Z,-1.50
2023-02-07T01:37:14.274Z,-1.50
2023-02-07T01:38:14.120Z,-1.50
2023-02-07T01:39:14.115Z,-1.53
2023-02-07T01:40:14.151Z,-1.53
2023-02-07T01:41:14.102Z,-1.53
2023-02-07T01:42:14.106Z,-1.54
2023-02-07T01:43:14.064Z,-1.54
2023-02-07T01:44:14.072Z,-1.54
2023-02-07T01:45:14.023Z,-1.58
2023-02-07T01:46:14.054Z,-1.59
2023-02-07T01:47:14.033Z,-1.59
2023-02-07T01:48:13.985Z,-1.61
2023-02-07T01:49:13.974Z,-1.65
2023-02-07T01:50:13.961Z,-1.65
2023-02-07T01:51:13.960Z,-1.66
2023-02-07T01:52:13.952Z,-1.68
2023-02-07T01:53:13.968Z,-1.68
2023-02-07T01:54:13.957Z,-1.69
2023-02-07T01:55:13.904Z,-1.72
2023-02-07T01:56:29.472Z,-1.74
2023-02-07T01:57:14.877Z,-1.76
2023-02-07T01:58:13.857Z,-1.77
2023-02-07T01:59:13.847Z,-1.79
2023-02-07T02:00:13.827Z,-1.79
2023-02-07T02:01:13.877Z,-1.80
2023-02-07T02:02:13.845Z,-1.83
2023-02-07T02:03:13.810Z,-1.86
2023-02-07T02:04:13.785Z,-1.87
2023-02-07T02:05:13.853Z,-1.87
2023-02-07T02:06:13.768Z,-1.89
2023-02-07T02:07:13.756Z,-1.92
2023-02-07T02:08:13.735Z,-1.94
2023-02-07T02:09:13.751Z,-1.95
2023-02-07T02:10:13.714Z,-1.98
2023-02-07T02:11:13.698Z,-2.00
2023-02-07T02:12:13.715Z,-2.00
2023-02-07T02:13:13.690Z,-2.04
2023-02-07T02:14:13.663Z,-2.04
2023-02-07T02:15:13.653Z,-2.04
2023-02-07T02:16:13.666Z,-2.07
2023-02-07T02:17:13.848Z,-2.08
2023-02-07T02:18:13.623Z,-2.12
2023-02-07T02:19:13.612Z,-2.13
2023-02-07T02:20:13.590Z,-2.15
2023-02-07T02:21:13.580Z,-2.18
2023-02-07T02:22:13.601Z,-2.18
2023-02-07T02:23:13.562Z,-2.21
2023-02-07T02:24:13.541Z,-2.22
2023-02-07T02:25:13.542Z,-2.23
2023-02-07T02:26:13.511Z,-2.25
2023-02-07T02:27:13.527Z,-2.26
2023-02-07T02:28:13.513Z,-2.30
2023-02-07T02:29:13.480Z,-2.30
2023-02-07T02:30:13.520Z,-2.32
2023-02-07T02:31:13.482Z,-2.32
2023-02-07T02:32:13.450Z,-2.34
2023-02-07T02:33:13.440Z,-2.35
2023-02-07T02:34:13.421Z,-2.37
2023-02-07T02:35:13.434Z,-2.38
2023-02-07T02:36:13.387Z,-2.40
2023-02-07T02:37:13.398Z,-2.40
2023-02-07T02:38:13.403Z,-2.42
2023-02-07T02:39:13.365Z,-2.42
2023-02-07T02:40:13.345Z,-2.44
2023-02-07T02:41:13.338Z,-2.44
2023-02-07T02:42:13.335Z,-2.45
2023-02-07T02:43:13.314Z,-2.45
2023-02-07T02:44:13.294Z,-2.45
2023-02-07T02:45:13.284Z,-2.48
2023-02-07T02:46:13.338Z,-2.48
2023-02-07T02:47:13.279Z,-2.50
2023-02-07T02:48:13.246Z,-2.50
2023-02-07T02:49:13.236Z,-2.48
2023-02-07T02:50:13.226Z,-2.50
2023-02-07T02:51:13.214Z,-2.52
2023-02-07T02:52:13.211Z,-2.55
2023-02-07T02:53:13.201Z,-2.53
2023-02-07T02:54:13.183Z,-2.55
2023-02-07T02:55:13.164Z,-2.56
2023-02-07T02:56:13.152Z,-2.58
2023-02-07T02:57:13.156Z,-2.60
2023-02-07T02:58:13.132Z,-2.59
2023-02-07T02:59:13.154Z,-2.62
2023-02-07T03:00:13.152Z,-2.62
2023-02-07T03:01:13.096Z,-2.63
2023-02-07T03:02:13.087Z,-2.65
2023-02-07T03:03:13.077Z,-2.65
2023-02-07T03:04:13.049Z,-2.65
2023-02-07T03:05:13.117Z,-2.66
2023-02-07T03:06:13.027Z,-2.69
2023-02-07T03:07:13.058Z,-2.71
2023-02-07T03:08:12.993Z,-2.70
2023-02-07T03:09:13.014Z,-2.71
2023-02-07T03:10:12.985Z,-2.73
2023-02-07T03:11:13.046Z,-2.73
2023-02-07T03:12:12.992Z,-2.76
2023-02-07T03:13:12.943Z,-2.76
2023-02-07T03:14:12.924Z,-2.78
2023-02-07T03:15:12.920Z,-2.78
2023-02-07T03:16:12.957Z,-2.81
2023-02-07T03:17:12.901Z,-2.80
2023-02-07T03:18:12.870Z,-2.83
2023-02-07T03:19:12.872Z,-2.83
2023-02-07T03:20:12.847Z,-2.88
2023-02-07T03:21:12.873Z,-2.86
2023-02-07T03:22:12.842Z,-2.88
2023-02-07T03:23:12.818Z,-2.88
2023-02-07T03:24:12.812Z,-2.89
2023-02-07T03:25:12.793Z,-2.91
2023-02-07T03:26:12.773Z,-2.95
2023-02-07T03:27:12.775Z,-2.95
2023-02-07T03:28:12.789Z,-2.97
2023-02-07T03:29:12.745Z,-2.99
2023-02-07T03:30:12.730Z,-2.98
2023-02-07T03:31:12.718Z,-3.02
2023-02-07T03:32:12.699Z,-3.01
2023-02-07T03:33:12.725Z,-3.02
2023-02-07T03:34:12.683Z,-3.06
2023-02-07T03:35:13.199Z,-3.07
2023-02-07T03:36:12.650Z,-3.07
2023-02-07T03:37:12.668Z,-3.07
2023-02-07T03:38:21.338Z,-3.07
2023-02-07T03:39:12.608Z,-3.09
2023-02-07T03:40:12.601Z,-3.12
2023-02-07T03:41:12.586Z,-3.12
2023-02-07T03:42:12.565Z,-3.12
2023-02-07T03:43:12.573Z,-3.13
2023-02-07T03:44:12.544Z,-3.15
2023-02-07T03:45:12.533Z,-3.17
2023-02-07T03:46:12.536Z,-3.17
2023-02-07T03:47:12.515Z,-3.20
2023-02-07T03:48:12.502Z,-3.20
2023-02-07T03:49:12.483Z,-3.20
2023-02-07T03:50:12.462Z,-3.23
2023-02-07T03:51:12.459Z,-3.25
2023-02-07T03:52:12.443Z,-3.25
2023-02-07T03:53:12.462Z,-3.25
2023-02-07T03:54:12.421Z,-3.28
2023-02-07T03:55:12.412Z,-3.30
2023-02-07T03:56:12.396Z,-3.28
2023-02-07T03:57:12.387Z,-3.31
2023-02-07T03:58:12.375Z,-3.31
2023-02-07T03:59:12.371Z,-3.34
2023-02-07T04:00:12.343Z,-3.33
2023-02-07T04:01:12.350Z,-3.37
2023-02-07T04:02:12.370Z,-3.35
2023-02-07T04:03:12.330Z,-3.38
2023-02-07T04:04:12.307Z,-3.38
2023-02-07T04:05:12.292Z,-3.44
2023-02-07T04:06:12.271Z,-3.41
2023-02-07T04:07:12.260Z,-3.46
2023-02-07T04:08:12.270Z,-3.46
2023-02-07T04:09:12.251Z,-3.48
2023-02-07T04:10:12.220Z,-3.48
2023-02-07T04:11:12.218Z,-3.49
2023-02-07T04:12:12.198Z,-3.51
2023-02-07T04:13:12.197Z,-3.51
2023-02-07T04:14:12.182Z,-3.51
2023-02-07T04:15:12.168Z,-3.55
2023-02-07T04:16:12.170Z,-3.52
2023-02-07T04:17:12.139Z,-3.55
2023-02-07T04:18:12.137Z,-3.56
2023-02-07T04:19:12.116Z,-3.58
2023-02-07T04:20:12.098Z,-3.55
2023-02-07T04:21:12.092Z,-3.59
2023-02-07T04:22:12.127Z,-3.59
2023-02-07T04:23:12.077Z,-3.63
2023-02-07T04:24:12.049Z,-3.64
2023-02-07T04:25:12.044Z,-3.66
2023-02-07T04:26:12.049Z,-3.66
2023-02-07T04:27:12.054Z,-3.64
2023-02-07T04:28:12.098Z,-3.67
2023-02-07T04:29:12.005Z,-3.69
2023-02-07T04:30:11.975Z,-3.70
2023-02-07T04:31:12.020Z,-3.70
2023-02-07T04:32:11.942Z,-3.72
2023-02-07T04:33:11.942Z,-3.72
2023-02-07T04:34:11.938Z,-3.74
2023-02-07T04:35:11.921Z,-3.77
2023-02-07T04:36:11.900Z,-3.77
2023-02-07T04:37:11.888Z,-3.77
2023-02-07T04:38:11.878Z,-3.80
2023-02-07T04:39:11.867Z,-3.80
2023-02-07T04:40:11.858Z,-3.78
2023-02-07T04:41:11.838Z,-3.85
2023-02-07T04:42:11.819Z,-3.85
2023-02-07T04:43:11.825Z,-3.85
2023-02-07T04:44:11.799Z,-3.88
2023-02-07T04:45:11.786Z,-3.88
2023-02-07T04:46:11.808Z,-3.88
2023-02-07T04:47:11.766Z,-3.91
2023-02-07T04:48:11.755Z,-3.89
2023-02-07T04:49:11.734Z,-3.92
2023-02-07T04:50:11.723Z,-3.93
2023-02-07T04:51:11.713Z,-3.95
2023-02-07T04:52:11.693Z,-3.92
2023-02-07T04:53:11.701Z,-3.96
2023-02-07T04:54:11.671Z,-3.95
2023-02-07T04:55:11.685Z,-3.98
2023-02-07T04:56:11.645Z,-3.99
2023-02-07T04:57:11.630Z,-3.99
2023-02-07T04:58:11.641Z,-3.96
2023-02-07T04:59:11.611Z,-4.03
2023-02-07T05:00:11.610Z,-4.03
2023-02-07T05:01:11.704Z,-4.04
2023-02-07T05:02:11.570Z,-4.06
2023-02-07T05:03:11.581Z,-4.06
2023-02-07T05:04:11.611Z,-4.09
2023-02-07T05:05:11.549Z,-4.09
2023-02-07T05:06:11.521Z,-4.10
2023-02-07T05:07:11.550Z,-4.12
2023-02-07T05:08:11.540Z,-4.13
2023-02-07T05:09:11.491Z,-4.13
2023-02-07T05:10:11.471Z,-4.14
2023-02-07T05:11:11.471Z,-4.17
2023-02-07T05:12:11.450Z,-4.17
2023-02-07T05:13:11.450Z,-4.17
2023-02-07T05:14:11.429Z,-4.20
2023-02-07T05:15:11.426Z,-4.21
2023-02-07T05:16:11.400Z,-4.21
2023-02-07T05:17:11.392Z,-4.21
2023-02-07T05:18:11.389Z,-4.21
2023-02-07T05:19:11.371Z,-4.25
2023-02-07T05:20:11.352Z,-4.22
2023-02-07T05:21:11.354Z,-4.25
2023-02-07T05:22:11.320Z,-4.24
2023-02-07T05:23:11.327Z,-4.27
2023-02-07T05:24:11.308Z,-4.28
2023-02-07T05:25:11.291Z,-4.30
2023-02-07T05:26:11.278Z,-4.30
2023-02-07T05:27:11.277Z,-4.32
2023-02-07T05:28:11.280Z,-4.35
2023-02-07T05:29:11.242Z,-4.32
2023-02-07T05:30:11.233Z,-4.35
2023-02-07T05:31:11.317Z,-4.39
2023-02-07T05:32:11.209Z,-4.39
2023-02-07T05:33:11.215Z,-4.41
2023-02-07T05:34:11.177Z,-4.39
2023-02-07T05:35:11.166Z,-4.41
2023-02-07T05:36:11.162Z,-4.41
2023-02-07T05:37:11.190Z,-4.43
2023-02-07T05:38:11.144Z,-4.45
2023-02-07T05:39:11.134Z,-4.46
2023-02-07T05:40:11.106Z,-4.46
2023-02-07T05:41:11.091Z,-4.49
2023-02-07T05:42:11.078Z,-4.49
2023-02-07T05:43:11.088Z,-4.53
2023-02-07T05:44:11.088Z,-4.52
2023-02-07T05:45:11.046Z,-4.55
2023-02-07T05:46:11.053Z,-4.57
2023-02-07T05:47:11.010Z,-4.55
2023-02-07T05:48:11.016Z,-4.59
2023-02-07T05:49:10.987Z,-4.57
2023-02-07T05:50:10.976Z,-4.60
2023-02-07T05:51:10.956Z,-4.63
2023-02-07T05:52:10.973Z,-4.61
2023-02-07T05:53:10.978Z,-4.63
2023-02-07T05:54:10.925Z,-4.66
2023-02-07T05:55:10.911Z,-4.64
2023-02-07T05:56:10.903Z,-4.67
2023-02-07T05:57:10.886Z,-4.67
2023-02-07T05:58:10.887Z,-4.70
2023-02-07T05:59:10.882Z,-4.69
2023-02-07T06:00:10.860Z,-4.70
2023-02-07T06:01:10.831Z,-4.69
2023-02-07T06:02:10.834Z,-4.70
2023-02-07T06:03:10.852Z,-4.71
2023-02-07T06:04:10.820Z,-4.73
2023-02-07T06:05:10.783Z,-4.73
2023-02-07T06:06:10.780Z,-4.73
2023-02-07T06:07:10.768Z,-4.73
2023-02-07T06:08:10.768Z,-4.73
2023-02-07T06:09:10.729Z,-4.73
2023-02-07T06:10:10.731Z,-4.73
2023-02-07T06:11:10.708Z,-4.77
2023-02-07T06:12:10.762Z,-4.77
2023-02-07T06:13:10.688Z,-4.78
2023-02-07T06:14:10.675Z,-4.79
2023-02-07T06:15:10.662Z,-4.79
2023-02-07T06:16:10.735Z,-4.81
2023-02-07T06:17:10.635Z,-4.81
2023-02-07T06:18:10.637Z,-4.82
2023-02-07T06:19:10.604Z,-4.81
2023-02-07T06:20:10.604Z,-4.82
2023-02-07T06:21:10.585Z,-4.82
2023-02-07T06:22:10.576Z,-4.85
2023-02-07T06:23:10.570Z,-4.85
2023-02-07T06:24:10.584Z,-4.84
2023-02-07T06:25:10.549Z,-4.84
2023-02-07T06:26:10.524Z,-4.85
2023-02-07T06:27:10.510Z,-4.87
2023-02-07T06:28:10.575Z,-4.87
2023-02-07T06:29:10.493Z,-4.88
2023-02-07T06:30:10.493Z,-4.87
2023-02-07T06:31:10.560Z,-4.89
2023-02-07T06:32:10.467Z,-4.89
2023-02-07T06:33:10.448Z,-4.88
2023-02-07T06:34:10.451Z,-4.88
2023-02-07T06:35:10.417Z,-4.89
2023-02-07T06:36:10.418Z,-4.91
2023-02-07T06:37:10.384Z,-4.95
2023-02-07T06:38:10.381Z,-4.92
2023-02-07T06:39:10.387Z,-4.95
2023-02-07T06:40:10.362Z,-4.96
2023-02-07T06:41:10.342Z,-4.98
2023-02-07T06:42:10.370Z,-4.98
2023-02-07T06:43:10.313Z,-4.99
2023-02-07T06:44:10.318Z,-5.00
2023-02-07T06:45:10.293Z,-5.00
2023-02-07T06:46:10.311Z,-5.02
2023-02-07T06:47:10.281Z,-5.02
2023-02-07T06:48:10.255Z,-5.05
2023-02-07T06:49:10.247Z,-5.03
2023-02-07T06:50:10.247Z,-5.05
2023-02-07T06:51:10.214Z,-5.06
2023-02-07T06:52:10.206Z,-5.03
2023-02-07T06:53:10.190Z,-5.06
2023-02-07T06:54:10.203Z,-5.05
2023-02-07T06:55:10.272Z,-5.08
2023-02-07T06:56:10.162Z,-5.06
2023-02-07T06:57:10.136Z,-5.05
2023-02-07T06:58:10.134Z,-5.06
2023-02-07T06:59:10.128Z,-5.08
2023-02-07T07:00:10.105Z,-5.08
2023-02-07T07:01:10.088Z,-5.06
2023-02-07T07:02:10.086Z,-5.05
2023-02-07T07:03:10.063Z,-5.06
2023-02-07T07:04:10.085Z,-5.09
2023-02-07T07:05:10.046Z,-5.08
2023-02-07T07:06:10.049Z,-5.09
2023-02-07T07:07:10.026Z,-5.09
2023-02-07T07:08:10.007Z,-5.09
2023-02-07T07:09:10.004Z,-5.10
2023-02-07T07:10:10.012Z,-5.09
2023-02-07T07:11:09.974Z,-5.08
2023-02-07T07:12:09.954Z,-5.09
2023-02-07T07:13:09.953Z,-5.10
2023-02-07T07:14:09.945Z,-5.08
2023-02-07T07:15:09.924Z,-5.09
2023-02-07T07:16:09.925Z,-5.09
2023-02-07T07:17:09.892Z,-5.08
2023-02-07T07:18:09.884Z,-5.08
2023-02-07T07:19:09.872Z,-5.06
2023-02-07T07:20:09.870Z,-5.06
2023-02-07T07:21:09.846Z,-5.06
2023-02-07T07:22:09.842Z,-5.03
2023-02-07T07:23:09.831Z,-5.05
2023-02-07T07:24:09.821Z,-5.02
2023-02-07T07:25:09.801Z,-5.02
2023-02-07T07:26:09.800Z,-5.03
2023-02-07T07:27:09.774Z,-5.02
2023-02-07T07:28:09.800Z,-5.03
2023-02-07T07:29:09.794Z,-5.03
2023-02-07T07:30:10.722Z,-5.00
2023-02-07T07:31:09.807Z,-4.98
2023-02-07T07:32:09.718Z,-4.98
2023-02-07T07:33:09.703Z,-4.91
2023-02-07T07:34:09.702Z,-4.89
2023-02-07T07:35:09.673Z,-4.82
2023-02-07T07:36:10.081Z,-4.78
2023-02-07T07:37:09.646Z,-4.73
2023-02-07T07:38:09.638Z,-4.70
2023-02-07T07:39:09.631Z,-4.67
2023-02-07T07:40:09.618Z,-4.64
2023-02-07T07:41:09.595Z,-4.64
2023-02-07T07:42:09.596Z,-4.57
2023-02-07T07:43:09.575Z,-4.55
2023-02-07T07:44:09.576Z,-4.50
2023-02-07T07:45:09.540Z,-4.45
2023-02-07T07:46:09.538Z,-4.45
2023-02-07T07:47:09.526Z,-4.41
2023-02-07T07:48:09.585Z,-4.38
2023-02-07T07:49:09.504Z,-4.32
2023-02-07T07:50:09.488Z,-4.30
2023-02-07T07:51:09.508Z,-4.25
2023-02-07T07:52:09.459Z,-4.21
2023-02-07T07:53:09.455Z,-4.20
2023-02-07T07:54:09.447Z,-4.20
2023-02-07T07:55:09.418Z,-4.17
2023-02-07T07:56:09.418Z,-4.14
2023-02-07T07:57:09.412Z,-4.13
2023-02-07T07:58:09.392Z,-4.13
2023-02-07T07:59:15.995Z,-4.09
2023-02-07T08:00:10.368Z,-4.09
2023-02-07T08:01:09.376Z,-4.03
2023-02-07T08:02:09.334Z,-4.03
2023-02-07T08:03:09.322Z,-3.99
2023-02-07T08:04:09.409Z,-3.95
2023-02-07T08:05:10.800Z,-3.92
2023-02-07T08:06:09.302Z,-3.89
2023-02-07T08:07:09.273Z,-3.88
2023-02-07T08:08:09.264Z,-3.85
2023-02-07T08:09:09.261Z,-3.78
2023-02-07T08:10:09.238Z,-3.77
2023-02-07T08:11:09.219Z,-3.70
2023-02-07T08:12:09.212Z,-3.69
2023-02-07T08:13:09.194Z,-3.61
2023-02-07T08:14:09.207Z,-3.58
2023-02-07T08:15:09.168Z,-3.55
2023-02-07T08:16:09.182Z,-3.49
2023-02-07T08:17:09.159Z,-3.44
2023-02-07T08:18:09.140Z,-3.37
2023-02-07T08:19:09.128Z,-3.34
2023-02-07T08:20:09.126Z,-3.28
2023-02-07T08:21:09.090Z,-3.22
2023-02-07T08:22:09.090Z,-3.16
2023-02-07T08:23:09.076Z,-3.07
2023-02-07T08:24:09.080Z,-3.02
2023-02-07T08:25:09.047Z,-2.94
2023-02-07T08:26:09.036Z,-2.89
2023-02-07T08:27:09.026Z,-2.81
2023-02-07T08:28:09.054Z,-2.73
2023-02-07T08:29:09.009Z,-2.63
2023-02-07T08:30:08.995Z,-2.55
2023-02-07T08:31:09.029Z,-2.45
2023-02-07T08:32:09.062Z,-2.38
2023-02-07T08:33:08.960Z,-2.30
2023-02-07T08:34:08.937Z,-2.18
2023-02-07T08:35:08.938Z,-2.13
2023-02-07T08:36:08.907Z,-2.01
2023-02-07T08:37:08.899Z,-1.94
2023-02-07T08:38:08.903Z,-1.87
2023-02-07T08:39:08.877Z,-1.80
2023-02-07T08:40:08.875Z,-1.72
2023-02-07T08:41:08.916Z,-1.65
2023-02-07T08:42:08.835Z,-1.61
2023-02-07T08:43:09.081Z,-1.53
2023-02-07T08:44:08.824Z,-1.48
2023-02-07T08:45:08.831Z,-1.46
2023-02-07T08:46:08.914Z,-1.43
2023-02-07T08:47:08.764Z,-1.38
2023-02-07T08:48:08.774Z,-1.37
2023-02-07T08:49:08.744Z,-1.32
2023-02-07T08:50:08.753Z,-1.30
2023-02-07T08:51:08.732Z,-1.29
2023-02-07T08:52:08.713Z,-1.30
2023-02-07T08:53:08.700Z,-1.29
2023-02-07T08:54:08.692Z,-1.27
2023-02-07T08:55:08.673Z,-1.27
2023-02-07T08:56:08.683Z,-1.29
2023-02-07T08:57:08.642Z,-1.27
2023-02-07T08:58:08.643Z,-1.25
2023-02-07T08:59:08.634Z,-1.25
2023-02-07T09:00:08.653Z,-1.23
2023-02-07T09:01:08.625Z,-1.20
2023-02-07T09:02:08.604Z,-1.17
2023-02-07T09:03:08.574Z,-1.12
2023-02-07T09:04:08.575Z,-1.11
2023-02-07T09:05:08.554Z,-1.08
2023-02-07T09:06:08.536Z,-1.04
2023-02-07T09:07:08.515Z,-0.94
2023-02-07T09:08:08.519Z,-0.91
2023-02-07T09:09:08.489Z,-0.82
2023-02-07T09:10:08.490Z,-0.75
2023-02-07T09:11:09.691Z,-0.71
2023-02-07T09:12:08.470Z,-0.64
2023-02-07T09:13:08.437Z,-0.57
2023-02-07T09:14:08.430Z,-0.52
2023-02-07T09:15:08.426Z,-0.44
2023-02-07T09:16:08.406Z,-0.36
2023-02-07T09:17:08.388Z,-0.29
2023-02-07T09:18:08.377Z,-0.23
2023-02-07T09:19:08.379Z,-0.15
2023-02-07T09:20:08.359Z,-0.08
2023-02-07T09:21:08.326Z,0.01
2023-02-07T09:22:08.328Z,0.07
2023-02-07T09:23:08.372Z,0.15
2023-02-07T09:24:08.304Z,0.22
2023-02-07T09:25:08.303Z,0.29
2023-02-07T09:26:08.280Z,0.36
2023-02-07T09:27:08.261Z,0.43
2023-02-07T09:28:08.297Z,0.50
2023-02-07T09:29:08.232Z,0.58
2023-02-07T09:30:08.238Z,0.63
2023-02-07T09:31:08.312Z,0.68
2023-02-07T09:32:08.218Z,0.74
2023-02-07T09:33:08.223Z,0.80
2023-02-07T09:34:08.188Z,0.86
2023-02-07T09:35:08.173Z,0.88
2023-02-07T09:36:08.151Z,0.96
2023-02-07T09:37:08.151Z,1.01
2023-02-07T09:38:08.128Z,1.04
2023-02-07T09:39:08.120Z,1.08
2023-02-07T09:40:08.139Z,1.14
2023-02-07T09:41:08.116Z,1.20
2023-02-07T09:42:08.097Z,1.23
2023-02-07T09:43:08.214Z,1.30
2023-02-07T09:44:08.229Z,1.31
2023-02-07T09:45:08.219Z,1.37
2023-02-07T09:46:08.115Z,1.40
2023-02-07T09:47:08.007Z,1.44
2023-02-07T09:48:10.077Z,1.44
2023-02-07T09:49:07.976Z,1.49
2023-02-07T09:50:07.984Z,1.49
2023-02-07T09:51:07.950Z,1.52
2023-02-07T09:52:07.976Z,1.53
2023-02-07T09:53:07.933Z,1.55
2023-02-07T09:54:07.917Z,1.59
2023-02-07T09:55:07.925Z,1.60
2023-02-07T09:56:07.900Z,1.63
2023-02-07T09:57:07.881Z,1.66
2023-02-07T09:58:07.862Z,1.67
2023-02-07T09:59:07.859Z,1.70
2023-02-07T10:00:07.861Z,1.71
2023-02-07T10:01:07.844Z,1.74
2023-02-07T10:02:07.827Z,1.76
2023-02-07T10:03:07.808Z,1.80
2023-02-07T10:04:07.783Z,1.84
2023-02-07T10:05:07.797Z,1.87
2023-02-07T10:06:18.023Z,1.91
2023-02-07T10:07:08.758Z,1.94
2023-02-07T10:08:07.736Z,1.97
2023-02-07T10:09:07.717Z,2.02
2023-02-07T10:10:07.716Z,2.07
2023-02-07T10:11:08.078Z,2.11
2023-02-07T10:12:07.696Z,2.14
2023-02-07T10:13:08.695Z,2.17
2023-02-07T10:14:07.661Z,2.20
2023-02-07T10:15:07.655Z,2.26
2023-02-07T10:16:07.670Z,2.28
2023-02-07T10:17:09.310Z,2.32
2023-02-07T10:18:07.592Z,2.35
2023-02-07T10:19:07.622Z,2.39
2023-02-07T10:20:07.590Z,2.43
2023-02-07T10:21:07.575Z,2.47
2023-02-07T10:22:07.559Z,2.49
2023-02-07T10:23:07.625Z,2.53
2023-02-07T10:24:07.534Z,2.54
2023-02-07T10:25:07.542Z,2.54
2023-02-07T10:26:07.534Z,2.54
2023-02-07T10:27:07.515Z,2.57
2023-02-07T10:28:07.543Z,2.60
2023-02-07T10:29:07.460Z,2.57
2023-02-07T10:30:07.473Z,2.60
2023-02-07T10:31:07.611Z,2.60
2023-02-07T10:32:07.443Z,2.57
2023-02-07T10:33:07.423Z,2.57
2023-02-07T10:34:07.408Z,2.60
2023-02-07T10:35:07.415Z,2.61
2023-02-07T10:36:07.378Z,2.65
2023-02-07T10:37:07.398Z,2.67
2023-02-07T10:38:07.408Z,2.72
2023-02-07T10:39:09.718Z,2.74
2023-02-07T10:40:07.366Z,2.75
2023-02-07T10:41:07.315Z,2.79
2023-02-07T10:42:07.300Z,2.80
2023-02-07T10:43:07.398Z,2.85
2023-02-07T10:44:07.279Z,2.87
2023-02-07T10:45:07.281Z,2.92
2023-02-07T10:46:07.348Z,2.92
2023-02-07T10:47:07.228Z,2.97
2023-02-07T10:48:07.241Z,3.01
2023-02-07T10:49:07.210Z,3.04
2023-02-07T10:50:07.209Z,3.03
2023-02-07T10:51:07.190Z,3.07
2023-02-07T10:52:07.180Z,3.10
2023-02-07T10:53:07.162Z,3.11
2023-02-07T10:54:07.151Z,3.14
2023-02-07T10:55:07.146Z,3.19
2023-02-07T10:56:07.110Z,3.21
2023-02-07T10:57:07.133Z,3.25
2023-02-07T10:58:21.217Z,3.26
2023-02-07T10:59:08.083Z,3.29
2023-02-07T11:00:07.093Z,3.31
2023-02-07T11:01:07.067Z,3.34
2023-02-07T11:02:08.646Z,3.40
2023-02-07T11:03:07.131Z,3.42
2023-02-07T11:04:07.030Z,3.45
2023-02-07T11:05:07.006Z,3.50
2023-02-07T11:06:07.010Z,3.51
2023-02-07T11:07:07.006Z,3.56
2023-02-07T11:08:09.233Z,3.58
2023-02-07T11:09:06.967Z,3.60
2023-02-07T11:10:06.995Z,3.65
2023-02-07T11:11:06.945Z,3.68
2023-02-07T11:12:06.921Z,3.70
2023-02-07T11:13:06.915Z,3.76
2023-02-07T11:14:06.906Z,3.78
2023-02-07T11:15:06.886Z,3.83
2023-02-07T11:16:07.061Z,3.86
2023-02-07T11:17:06.856Z,3.91
2023-02-07T11:18:06.860Z,3.95
2023-02-07T11:19:06.846Z,3.98
2023-02-07T11:20:06.820Z,4.01
2023-02-07T11:21:06.825Z,4.04
2023-02-07T11:22:06.792Z,4.06
2023-02-07T11:23:06.783Z,4.13
2023-02-07T11:24:06.809Z,4.16
2023-02-07T11:25:06.798Z,4.22
2023-02-07T11:26:06.753Z,4.24
2023-02-07T11:27:06.732Z,4.30
2023-02-07T11:28:06.769Z,4.32
2023-02-07T11:29:07.768Z,4.35
2023-02-07T11:30:06.691Z,4.38
2023-02-07T11:31:06.827Z,4.42
2023-02-07T11:32:06.670Z,4.48
2023-02-07T11:33:06.652Z,4.50
2023-02-07T11:34:06.645Z,4.53
2023-02-07T11:35:06.622Z,4.58
2023-02-07T11:36:06.642Z,4.60
2023-02-07T11:37:06.606Z,4.66
2023-02-07T11:38:06.572Z,4.70
2023-02-07T11:39:06.593Z,4.73
2023-02-07T11:40:06.582Z,4.75
2023-02-07T11:41:06.563Z,4.82
2023-02-07T11:42:06.535Z,4.86
2023-02-07T11:43:06.535Z,4.90
2023-02-07T11:44:06.511Z,4.92
2023-02-07T11:45:06.514Z,4.96
2023-02-07T11:46:06.580Z,4.99
2023-02-07T11:47:06.476Z,5.02
2023-02-07T11:48:06.453Z,5.07
2023-02-07T11:49:06.448Z,5.11
2023-02-07T11:50:06.435Z,5.17
2023-02-07T11:51:06.464Z,5.21
2023-02-07T11:52:06.400Z,5.26
2023-02-07T11:53:06.403Z,5.33
2023-02-07T11:54:06.382Z,5.35
2023-02-07T11:55:06.378Z,5.43
2023-02-07T11:56:06.361Z,5.48
2023-02-07T11:57:06.356Z,5.54
2023-02-07T11:58:06.332Z,5.61
2023-02-07T11:59:06.320Z,5.71
2023-02-07T12:00:06.305Z,5.73
2023-02-07T12:01:06.321Z,5.79
2023-02-07T12:02:06.307Z,5.86
2023-02-07T12:03:06.272Z,5.91
2023-02-07T12:04:06.242Z,5.98
2023-02-07T12:05:06.270Z,6.07
2023-02-07T12:06:06.250Z,6.14
2023-02-07T12:07:06.228Z,6.20
2023-02-07T12:08:06.209Z,6.24
2023-02-07T12:09:06.196Z,6.27
2023-02-07T12:10:06.200Z,6.33
2023-02-07T12:11:06.170Z,6.39
2023-02-07T12:12:06.177Z,6.44
2023-02-07T12:13:06.139Z,6.48
2023-02-07T12:14:06.121Z,6.52
2023-02-07T12:15:06.134Z,6.56
2023-02-07T12:16:06.144Z,6.63
2023-02-07T12:17:06.095Z,6.66
2023-02-07T12:18:06.088Z,6.72
2023-02-07T12:19:06.062Z,6.78
2023-02-07T12:20:06.059Z,6.81
2023-02-07T12:21:06.040Z,6.85
2023-02-07T12:22:06.021Z,6.89
2023-02-07T12:23:34.587Z,6.97
2023-02-07T12:24:06.986Z,7.02
2023-02-07T12:25:05.989Z,7.06
2023-02-07T12:26:05.981Z,7.13
2023-02-07T12:27:05.984Z,7.17
2023-02-07T12:28:05.995Z,7.21
2023-02-07T12:29:13.242Z,7.25
2023-02-07T12:30:06.912Z,7.29
2023-02-07T12:31:06.552Z,7.35
2023-02-07T12:32:06.043Z,7.38
2023-02-07T12:33:05.894Z,7.43
2023-02-07T12:34:05.859Z,7.48
2023-02-07T12:35:05.850Z,7.54
2023-02-07T12:36:05.840Z,7.58
2023-02-07T12:37:05.839Z,7.63
2023-02-07T12:38:05.815Z,7.70
2023-02-07T12:39:05.812Z,7.73
2023-02-07T12:40:05.795Z,7.77
2023-02-07T12:41:05.801Z,7.80
2023-02-07T12:42:05.771Z,7.85
2023-02-07T12:43:05.764Z,7.90
2023-02-07T12:44:07.040Z,7.94
2023-02-07T12:45:05.731Z,8.01
2023-02-07T12:46:05.767Z,8.05
2023-02-07T12:47:05.705Z,8.12
2023-02-07T12:48:05.680Z,8.18
2023-02-07T12:49:05.690Z,8.24
2023-02-07T12:50:05.673Z,8.28
2023-02-07T12:51:05.692Z,8.34
2023-02-07T12:52:07.181Z,8.38
2023-02-07T12:53:05.668Z,8.42
2023-02-07T12:54:05.607Z,8.46
2023-02-07T12:55:05.600Z,8.52
2023-02-07T12:56:05.596Z,8.56
2023-02-07T12:57:05.587Z,8.63
2023-02-07T12:58:05.603Z,8.64
2023-02-07T12:59:05.548Z,8.71
2023-02-07T13:00:05.532Z,8.76
2023-02-07T13:01:05.558Z,8.81
2023-02-07T13:02:05.556Z,8.85
2023-02-07T13:03:05.498Z,8.89